sensor_id;sensor_type;location;lat;lon;timestamp;temperature;humidity
36212;DHT22;22247;48.586;13.492;2022-12-07T00:01:40;2.00;99.90
36212;DHT22;22247;48.586;13.492;2022-12-07T00:04:10;2.80;99.90
36212;DHT22;22247;48.586;13.492;2022-12-07T00:06:42;2.30;99.90
36212;DHT22;22247;48.586;13.492;2022-12-07T00:09:14;2.20;99.90
36212;DHT22;22247;48.586;13.492;2022-12-07T00:11:40;2.20;99.90
36212;DHT22;22247;48.586;13.492;2022-12-07T00:14:09;2.50;99.90
36212;DHT22;22247;48.586;13.492;2022-12-07T00:16:37;2.60;99.90
36212;DHT22;22247;48.586;13.492;2022-12-07T00:19:05;2.40;99.90
36212;DHT22;22247;48.586;13.492;2022-12-07T00:21:35;2.20;99.90
36212;DHT22;22247;48.586;13.492;2022-12-07T00:24:02;2.20;99.90
36212;DHT22;22247;48.586;13.492;2022-12-07T00:26:33;2.40;99.90
36212;DHT22;22247;48.586;13.492;2022-12-07T00:29:04;2.40;99.90
36212;DHT22;22247;48.586;13.492;2022-12-07T00:31:33;2.50;99.90
36212;DHT22;22247;48.586;13.492;2022-12-07T00:34:00;2.00;99.90
36212;DHT22;22247;48.586;13.492;2022-12-07T00:36:28;2.30;99.90
36212;DHT22;22247;48.586;13.492;2022-12-07T00:38:54;2.20;99.90
36212;DHT22;22247;48.586;13.492;2022-12-07T00:41:23;2.10;99.90
36212;DHT22;22247;48.586;13.492;2022-12-07T00:43:52;2.40;99.90
36212;DHT22;22247;48.586;13.492;2022-12-07T00:46:19;2.30;99.90
36212;DHT22;22247;48.586;13.492;2022-12-07T00:48:46;2.40;99.90
36212;DHT22;22247;48.586;13.492;2022-12-07T00:51:16;2.50;99.90
36212;DHT22;22247;48.586;13.492;2022-12-07T00:53:42;2.30;99.90
36212;DHT22;22247;48.586;13.492;2022-12-07T00:56:21;2.20;99.90
36212;DHT22;22247;48.586;13.492;2022-12-07T00:59:06;1.90;99.90
36212;DHT22;22247;48.586;13.492;2022-12-07T01:01:35;2.30;99.90
36212;DHT22;22247;48.586;13.492;2022-12-07T01:06:30;2.10;99.90
36212;DHT22;22247;48.586;13.492;2022-12-07T01:08:57;2.40;99.90
36212;DHT22;22247;48.586;13.492;2022-12-07T01:11:25;2.50;99.90
36212;DHT22;22247;48.586;13.492;2022-12-07T01:13:58;2.50;99.90
36212;DHT22;22247;48.586;13.492;2022-12-07T01:16:28;2.30;99.90
36212;DHT22;22247;48.586;13.492;2022-12-07T01:18:58;2.30;99.90
36212;DHT22;22247;48.586;13.492;2022-12-07T01:21:29;2.40;99.90
36212;DHT22;22247;48.586;13.492;2022-12-07T01:24:02;2.40;99.90
36212;DHT22;22247;48.586;13.492;2022-12-07T01:26:28;2.20;99.90
36212;DHT22;22247;48.586;13.492;2022-12-07T01:31:22;2.30;99.90
36212;DHT22;22247;48.586;13.492;2022-12-07T01:33:57;2.20;99.90
36212;DHT22;22247;48.586;13.492;2022-12-07T01:36:30;2.30;99.90
36212;DHT22;22247;48.586;13.492;2022-12-07T01:39:03;2.30;99.90
36212;DHT22;22247;48.586;13.492;2022-12-07T01:41:31;3.00;99.90
36212;DHT22;22247;48.586;13.492;2022-12-07T01:44:17;2.50;99.90
36212;DHT22;22247;48.586;13.492;2022-12-07T01:46:51;2.50;99.90
36212;DHT22;22247;48.586;13.492;2022-12-07T01:49:31;2.30;99.90
36212;DHT22;22247;48.586;13.492;2022-12-07T01:52:22;2.40;99.90
36212;DHT22;22247;48.586;13.492;2022-12-07T01:54:57;2.10;99.90
36212;DHT22;22247;48.586;13.492;2022-12-07T01:57:24;2.50;99.90
36212;DHT22;22247;48.586;13.492;2022-12-07T01:59:51;2.50;99.90
36212;DHT22;22247;48.586;13.492;2022-12-07T02:02:29;2.20;99.90
36212;DHT22;22247;48.586;13.492;2022-12-07T02:05:00;2.40;99.90
36212;DHT22;22247;48.586;13.492;2022-12-07T02:07:29;2.20;99.90
36212;DHT22;22247;48.586;13.492;2022-12-07T02:12:23;2.20;99.90
36212;DHT22;22247;48.586;13.492;2022-12-07T02:14:52;2.50;99.90
36212;DHT22;22247;48.586;13.492;2022-12-07T02:17:28;2.30;99.90
36212;DHT22;22247;48.586;13.492;2022-12-07T02:20:14;2.20;99.90
36212;DHT22;22247;48.586;13.492;2022-12-07T02:26:02;2.80;99.90
36212;DHT22;22247;48.586;13.492;2022-12-07T02:31:19;2.70;99.90
36212;DHT22;22247;48.586;13.492;2022-12-07T02:34:24;2.10;99.90
36212;DHT22;22247;48.586;13.492;2022-12-07T02:36:54;2.20;99.90
36212;DHT22;22247;48.586;13.492;2022-12-07T02:39:34;2.50;99.90
36212;DHT22;22247;48.586;13.492;2022-12-07T02:42:12;2.10;99.90
36212;DHT22;22247;48.586;13.492;2022-12-07T02:44:41;2.40;99.90
36212;DHT22;22247;48.586;13.492;2022-12-07T02:47:12;2.50;99.90
36212;DHT22;22247;48.586;13.492;2022-12-07T02:49:44;2.00;99.90
36212;DHT22;22247;48.586;13.492;2022-12-07T02:52:12;2.90;99.90
36212;DHT22;22247;48.586;13.492;2022-12-07T03:05:13;2.60;99.90
36212;DHT22;22247;48.586;13.492;2022-12-07T03:18:01;2.20;99.90
36212;DHT22;22247;48.586;13.492;2022-12-07T03:20:31;2.40;99.90
36212;DHT22;22247;48.586;13.492;2022-12-07T03:22:59;2.30;99.90
36212;DHT22;22247;48.586;13.492;2022-12-07T03:25:26;2.20;99.90
36212;DHT22;22247;48.586;13.492;2022-12-07T03:28:05;2.00;99.90
36212;DHT22;22247;48.586;13.492;2022-12-07T03:30:56;2.00;99.90
36212;DHT22;22247;48.586;13.492;2022-12-07T03:33:39;2.20;99.90
36212;DHT22;22247;48.586;13.492;2022-12-07T03:38:48;2.30;99.90
36212;DHT22;22247;48.586;13.492;2022-12-07T03:41:23;3.00;99.90
36212;DHT22;22247;48.586;13.492;2022-12-07T03:43:50;2.10;99.90
36212;DHT22;22247;48.586;13.492;2022-12-07T03:51:45;1.90;99.90
36212;DHT22;22247;48.586;13.492;2022-12-07T03:54:19;2.20;99.90
36212;DHT22;22247;48.586;13.492;2022-12-07T03:56:47;1.90;99.90
36212;DHT22;22247;48.586;13.492;2022-12-07T03:59:17;2.40;99.90
36212;DHT22;22247;48.586;13.492;2022-12-07T04:01:53;2.10;99.90
36212;DHT22;22247;48.586;13.492;2022-12-07T04:04:20;2.10;99.90
36212;DHT22;22247;48.586;13.492;2022-12-07T04:06:48;2.20;99.90
36212;DHT22;22247;48.586;13.492;2022-12-07T04:11:42;2.10;99.90
36212;DHT22;22247;48.586;13.492;2022-12-07T04:16:49;2.20;99.90
36212;DHT22;22247;48.586;13.492;2022-12-07T04:19:19;2.00;99.90
36212;DHT22;22247;48.586;13.492;2022-12-07T04:21:46;3.10;99.90
36212;DHT22;22247;48.586;13.492;2022-12-07T04:24:13;2.40;99.90
36212;DHT22;22247;48.586;13.492;2022-12-07T04:26:46;2.20;99.90
36212;DHT22;22247;48.586;13.492;2022-12-07T04:29:13;2.50;99.90
36212;DHT22;22247;48.586;13.492;2022-12-07T04:31:39;2.40;99.90
36212;DHT22;22247;48.586;13.492;2022-12-07T04:34:08;2.10;99.90
36212;DHT22;22247;48.586;13.492;2022-12-07T04:36:36;2.20;99.90
36212;DHT22;22247;48.586;13.492;2022-12-07T04:39:03;2.10;99.90
36212;DHT22;22247;48.586;13.492;2022-12-07T04:41:31;2.40;99.90
36212;DHT22;22247;48.586;13.492;2022-12-07T04:44:00;2.20;99.90
36212;DHT22;22247;48.586;13.492;2022-12-07T04:46:29;2.20;99.90
36212;DHT22;22247;48.586;13.492;2022-12-07T04:48:55;2.00;99.90
36212;DHT22;22247;48.586;13.492;2022-12-07T04:51:25;2.30;99.90
36212;DHT22;22247;48.586;13.492;2022-12-07T04:56:19;2.40;99.90
36212;DHT22;22247;48.586;13.492;2022-12-07T04:58:46;2.20;99.90
36212;DHT22;22247;48.586;13.492;2022-12-07T05:01:16;2.10;99.90
36212;DHT22;22247;48.586;13.492;2022-12-07T05:03:42;2.40;99.90
36212;DHT22;22247;48.586;13.492;2022-12-07T05:06:14;2.10;99.90
36212;DHT22;22247;48.586;13.492;2022-12-07T05:08:42;2.00;99.90
36212;DHT22;22247;48.586;13.492;2022-12-07T05:11:09;2.00;99.90
36212;DHT22;22247;48.586;13.492;2022-12-07T05:13:35;2.30;99.90
36212;DHT22;22247;48.586;13.492;2022-12-07T05:16:01;2.10;99.90
36212;DHT22;22247;48.586;13.492;2022-12-07T05:20:53;2.20;99.90
36212;DHT22;22247;48.586;13.492;2022-12-07T05:25:46;2.40;99.90
36212;DHT22;22247;48.586;13.492;2022-12-07T05:28:11;2.00;99.90
36212;DHT22;22247;48.586;13.492;2022-12-07T05:30:37;2.30;99.90
36212;DHT22;22247;48.586;13.492;2022-12-07T05:35:30;2.10;99.90
36212;DHT22;22247;48.586;13.492;2022-12-07T05:37:58;2.10;99.90
36212;DHT22;22247;48.586;13.492;2022-12-07T05:40:24;2.30;99.90
36212;DHT22;22247;48.586;13.492;2022-12-07T05:45:15;2.30;99.90
36212;DHT22;22247;48.586;13.492;2022-12-07T05:52:35;2.30;99.90
36212;DHT22;22247;48.586;13.492;2022-12-07T05:55:03;2.00;99.90
36212;DHT22;22247;48.586;13.492;2022-12-07T05:57:29;1.90;99.90
36212;DHT22;22247;48.586;13.492;2022-12-07T05:59:59;2.20;99.90
36212;DHT22;22247;48.586;13.492;2022-12-07T06:02:27;2.10;99.90
36212;DHT22;22247;48.586;13.492;2022-12-07T06:07:24;2.40;99.90
36212;DHT22;22247;48.586;13.492;2022-12-07T06:09:51;2.10;99.90
36212;DHT22;22247;48.586;13.492;2022-12-07T06:12:17;2.40;99.90
36212;DHT22;22247;48.586;13.492;2022-12-07T06:17:32;2.00;99.90
36212;DHT22;22247;48.586;13.492;2022-12-07T06:22:28;1.70;99.90
36212;DHT22;22247;48.586;13.492;2022-12-07T06:24:56;1.60;99.90
36212;DHT22;22247;48.586;13.492;2022-12-07T06:27:24;2.00;99.90
36212;DHT22;22247;48.586;13.492;2022-12-07T06:37:11;2.20;99.90
36212;DHT22;22247;48.586;13.492;2022-12-07T06:42:06;2.40;99.90
36212;DHT22;22247;48.586;13.492;2022-12-07T06:47:00;2.20;99.90
36212;DHT22;22247;48.586;13.492;2022-12-07T06:49:28;1.90;99.90
36212;DHT22;22247;48.586;13.492;2022-12-07T06:51:54;2.30;99.90
36212;DHT22;22247;48.586;13.492;2022-12-07T06:56:50;2.20;99.90
36212;DHT22;22247;48.586;13.492;2022-12-07T06:59:16;2.00;99.90
36212;DHT22;22247;48.586;13.492;2022-12-07T07:09:02;2.10;99.90
36212;DHT22;22247;48.586;13.492;2022-12-07T07:11:28;1.80;99.90
36212;DHT22;22247;48.586;13.492;2022-12-07T07:13:54;2.20;99.90
36212;DHT22;22247;48.586;13.492;2022-12-07T07:16:22;2.00;99.90
36212;DHT22;22247;48.586;13.492;2022-12-07T07:18:50;2.00;99.90
36212;DHT22;22247;48.586;13.492;2022-12-07T07:21:18;2.20;99.90
36212;DHT22;22247;48.586;13.492;2022-12-07T07:23:44;2.00;99.90
36212;DHT22;22247;48.586;13.492;2022-12-07T07:26:09;2.20;99.90
36212;DHT22;22247;48.586;13.492;2022-12-07T07:28:39;2.10;99.90
36212;DHT22;22247;48.586;13.492;2022-12-07T07:33:35;2.20;99.90
36212;DHT22;22247;48.586;13.492;2022-12-07T07:36:01;2.40;99.90
36212;DHT22;22247;48.586;13.492;2022-12-07T07:40:55;2.00;99.90
36212;DHT22;22247;48.586;13.492;2022-12-07T07:43:25;2.20;99.90
36212;DHT22;22247;48.586;13.492;2022-12-07T07:45:53;2.00;99.90
36212;DHT22;22247;48.586;13.492;2022-12-07T07:48:19;2.10;99.90
36212;DHT22;22247;48.586;13.492;2022-12-07T08:02:57;2.50;99.90
36212;DHT22;22247;48.586;13.492;2022-12-07T08:12:45;2.50;99.90
36212;DHT22;22247;48.586;13.492;2022-12-07T08:15:30;2.30;99.90
36212;DHT22;22247;48.586;13.492;2022-12-07T08:17:57;2.30;99.90
36212;DHT22;22247;48.586;13.492;2022-12-07T08:20:25;2.40;99.90
36212;DHT22;22247;48.586;13.492;2022-12-07T08:22:51;2.00;99.90
36212;DHT22;22247;48.586;13.492;2022-12-07T08:25:19;2.40;99.90
36212;DHT22;22247;48.586;13.492;2022-12-07T08:27:48;2.40;99.90
36212;DHT22;22247;48.586;13.492;2022-12-07T08:30:14;2.10;99.90
36212;DHT22;22247;48.586;13.492;2022-12-07T08:35:08;2.50;99.90
36212;DHT22;22247;48.586;13.492;2022-12-07T08:37:33;2.40;99.90
36212;DHT22;22247;48.586;13.492;2022-12-07T08:42:25;2.40;99.90
36212;DHT22;22247;48.586;13.492;2022-12-07T08:44:58;2.30;99.90
36212;DHT22;22247;48.586;13.492;2022-12-07T08:49:55;2.80;99.90
36212;DHT22;22247;48.586;13.492;2022-12-07T08:52:29;2.70;99.90
36212;DHT22;22247;48.586;13.492;2022-12-07T08:54:59;2.60;99.90
36212;DHT22;22247;48.586;13.492;2022-12-07T08:57:33;3.10;99.90
36212;DHT22;22247;48.586;13.492;2022-12-07T09:00:02;2.30;99.90
36212;DHT22;22247;48.586;13.492;2022-12-07T09:12:14;3.60;99.90
36212;DHT22;22247;48.586;13.492;2022-12-07T09:14:42;3.10;99.90
36212;DHT22;22247;48.586;13.492;2022-12-07T09:17:09;2.80;99.90
36212;DHT22;22247;48.586;13.492;2022-12-07T09:19:36;3.00;99.90
36212;DHT22;22247;48.586;13.492;2022-12-07T09:22:05;2.70;99.90
36212;DHT22;22247;48.586;13.492;2022-12-07T09:24:31;2.80;99.90
36212;DHT22;22247;48.586;13.492;2022-12-07T09:26:59;2.80;99.90
36212;DHT22;22247;48.586;13.492;2022-12-07T09:41:43;2.50;99.90
36212;DHT22;22247;48.586;13.492;2022-12-07T09:44:14;2.40;99.90
36212;DHT22;22247;48.586;13.492;2022-12-07T09:46:44;2.40;99.90
36212;DHT22;22247;48.586;13.492;2022-12-07T09:49:14;2.50;99.90
36212;DHT22;22247;48.586;13.492;2022-12-07T09:54:11;2.50;99.90
36212;DHT22;22247;48.586;13.492;2022-12-07T10:01:32;2.70;99.90
36212;DHT22;22247;48.586;13.492;2022-12-07T10:04:21;3.30;99.90
36212;DHT22;22247;48.586;13.492;2022-12-07T10:06:50;2.90;99.90
36212;DHT22;22247;48.586;13.492;2022-12-07T10:09:22;3.10;99.90
36212;DHT22;22247;48.586;13.492;2022-12-07T10:12:06;3.40;99.90
36212;DHT22;22247;48.586;13.492;2022-12-07T10:14:34;3.10;99.90
36212;DHT22;22247;48.586;13.492;2022-12-07T10:17:08;3.30;99.90
36212;DHT22;22247;48.586;13.492;2022-12-07T10:22:18;3.20;99.90
36212;DHT22;22247;48.586;13.492;2022-12-07T10:24:46;3.20;99.90
36212;DHT22;22247;48.586;13.492;2022-12-07T10:27:30;3.10;99.90
36212;DHT22;22247;48.586;13.492;2022-12-07T10:29:57;3.30;99.90
36212;DHT22;22247;48.586;13.492;2022-12-07T10:32:33;3.30;99.90
36212;DHT22;22247;48.586;13.492;2022-12-07T10:35:22;3.40;99.90
36212;DHT22;22247;48.586;13.492;2022-12-07T10:40:36;3.30;99.90
36212;DHT22;22247;48.586;13.492;2022-12-07T10:54:20;4.00;99.90
36212;DHT22;22247;48.586;13.492;2022-12-07T10:57:18;3.40;99.90
36212;DHT22;22247;48.586;13.492;2022-12-07T11:05:28;3.50;99.90
36212;DHT22;22247;48.586;13.492;2022-12-07T11:13:48;3.50;99.90
36212;DHT22;22247;48.586;13.492;2022-12-07T11:35:49;3.70;99.90
36212;DHT22;22247;48.586;13.492;2022-12-07T11:38:26;2.80;99.90
36212;DHT22;22247;48.586;13.492;2022-12-07T11:41:01;3.70;99.90
36212;DHT22;22247;48.586;13.492;2022-12-07T11:43:52;3.80;99.90
36212;DHT22;22247;48.586;13.492;2022-12-07T11:46:28;3.70;99.90
36212;DHT22;22247;48.586;13.492;2022-12-07T11:49:11;3.50;99.90
36212;DHT22;22247;48.586;13.492;2022-12-07T11:51:40;3.50;99.90
36212;DHT22;22247;48.586;13.492;2022-12-07T11:54:16;3.40;99.90
36212;DHT22;22247;48.586;13.492;2022-12-07T11:56:46;3.40;99.90
36212;DHT22;22247;48.586;13.492;2022-12-07T11:59:42;3.50;99.90
36212;DHT22;22247;48.586;13.492;2022-12-07T12:02:23;3.50;99.90
36212;DHT22;22247;48.586;13.492;2022-12-07T12:07:36;3.50;99.90
36212;DHT22;22247;48.586;13.492;2022-12-07T12:10:14;3.50;99.90
36212;DHT22;22247;48.586;13.492;2022-12-07T12:21:10;3.60;99.90
36212;DHT22;22247;48.586;13.492;2022-12-07T12:23:42;3.60;99.90
36212;DHT22;22247;48.586;13.492;2022-12-07T12:26:23;3.60;99.90
36212;DHT22;22247;48.586;13.492;2022-12-07T12:29:02;3.60;99.90
36212;DHT22;22247;48.586;13.492;2022-12-07T12:31:40;3.60;99.90
36212;DHT22;22247;48.586;13.492;2022-12-07T12:41:56;3.60;99.90
36212;DHT22;22247;48.586;13.492;2022-12-07T13:02:46;3.40;99.90
36212;DHT22;22247;48.586;13.492;2022-12-07T13:15:55;3.60;99.90
36212;DHT22;22247;48.586;13.492;2022-12-07T13:26:22;3.50;99.90
36212;DHT22;22247;48.586;13.492;2022-12-07T13:34:05;1.00;99.90
36212;DHT22;22247;48.586;13.492;2022-12-07T13:36:33;3.40;99.90
36212;DHT22;22247;48.586;13.492;2022-12-07T13:39:18;3.50;99.90
36212;DHT22;22247;48.586;13.492;2022-12-07T13:41:51;3.50;99.90
36212;DHT22;22247;48.586;13.492;2022-12-07T13:44:20;3.50;99.90
36212;DHT22;22247;48.586;13.492;2022-12-07T13:46:50;3.50;99.90
36212;DHT22;22247;48.586;13.492;2022-12-07T13:49:26;3.50;99.90
36212;DHT22;22247;48.586;13.492;2022-12-07T13:51:53;3.50;99.90
36212;DHT22;22247;48.586;13.492;2022-12-07T13:54:20;3.60;99.90
36212;DHT22;22247;48.586;13.492;2022-12-07T13:56:53;3.70;99.90
36212;DHT22;22247;48.586;13.492;2022-12-07T13:59:21;3.60;99.90
36212;DHT22;22247;48.586;13.492;2022-12-07T14:01:49;3.50;99.90
36212;DHT22;22247;48.586;13.492;2022-12-07T14:06:50;3.60;99.90
36212;DHT22;22247;48.586;13.492;2022-12-07T14:14:22;3.60;99.90
36212;DHT22;22247;48.586;13.492;2022-12-07T14:16:58;3.50;99.90
36212;DHT22;22247;48.586;13.492;2022-12-07T14:32:35;3.30;99.90
36212;DHT22;22247;48.586;13.492;2022-12-07T14:35:12;3.30;99.90
36212;DHT22;22247;48.586;13.492;2022-12-07T14:37:44;3.30;99.90
36212;DHT22;22247;48.586;13.492;2022-12-07T14:40:16;3.30;99.90
36212;DHT22;22247;48.586;13.492;2022-12-07T14:42:42;3.40;99.90
36212;DHT22;22247;48.586;13.492;2022-12-07T14:45:18;3.20;99.90
36212;DHT22;22247;48.586;13.492;2022-12-07T14:50:17;3.20;99.90
36212;DHT22;22247;48.586;13.492;2022-12-07T14:52:48;3.20;99.90
36212;DHT22;22247;48.586;13.492;2022-12-07T14:55:26;3.20;99.90
36212;DHT22;22247;48.586;13.492;2022-12-07T15:00:19;3.20;99.90
36212;DHT22;22247;48.586;13.492;2022-12-07T15:02:47;3.80;99.90
36212;DHT22;22247;48.586;13.492;2022-12-07T15:10:19;3.10;99.90
36212;DHT22;22247;48.586;13.492;2022-12-07T15:20:10;3.00;99.90
36212;DHT22;22247;48.586;13.492;2022-12-07T15:27:35;3.00;99.90
36212;DHT22;22247;48.586;13.492;2022-12-07T15:39:50;3.00;99.90
36212;DHT22;22247;48.586;13.492;2022-12-07T15:52:26;3.10;99.90
36212;DHT22;22247;48.586;13.492;2022-12-07T15:59:48;3.10;99.90
36212;DHT22;22247;48.586;13.492;2022-12-07T16:09:41;4.50;99.90
36212;DHT22;22247;48.586;13.492;2022-12-07T16:12:15;3.00;99.90
36212;DHT22;22247;48.586;13.492;2022-12-07T16:17:11;2.80;99.90
36212;DHT22;22247;48.586;13.492;2022-12-07T16:44:05;2.70;99.90
36212;DHT22;22247;48.586;13.492;2022-12-07T16:46:34;2.70;99.90
36212;DHT22;22247;48.586;13.492;2022-12-07T16:51:30;2.80;99.90
36212;DHT22;22247;48.586;13.492;2022-12-07T16:53:58;2.80;99.90
36212;DHT22;22247;48.586;13.492;2022-12-07T16:56:24;2.80;99.90
36212;DHT22;22247;48.586;13.492;2022-12-07T17:01:22;2.60;99.90
36212;DHT22;22247;48.586;13.492;2022-12-07T17:03:50;3.20;99.90
36212;DHT22;22247;48.586;13.492;2022-12-07T17:06:19;2.90;99.90
36212;DHT22;22247;48.586;13.492;2022-12-07T17:08:48;0.10;99.90
36212;DHT22;22247;48.586;13.492;2022-12-07T17:11:23;2.80;99.90
36212;DHT22;22247;48.586;13.492;2022-12-07T17:16:36;2.60;99.90
36212;DHT22;22247;48.586;13.492;2022-12-07T17:19:12;2.60;99.90
36212;DHT22;22247;48.586;13.492;2022-12-07T17:21:39;2.60;99.90
36212;DHT22;22247;48.586;13.492;2022-12-07T17:24:10;2.70;99.90
36212;DHT22;22247;48.586;13.492;2022-12-07T17:26:40;2.80;99.90
36212;DHT22;22247;48.586;13.492;2022-12-07T17:29:07;2.40;99.90
36212;DHT22;22247;48.586;13.492;2022-12-07T17:31:37;2.50;99.90
36212;DHT22;22247;48.586;13.492;2022-12-07T17:34:03;2.70;99.90
36212;DHT22;22247;48.586;13.492;2022-12-07T17:36:32;2.70;99.90
36212;DHT22;22247;48.586;13.492;2022-12-07T17:38:58;2.80;99.90
36212;DHT22;22247;48.586;13.492;2022-12-07T17:41:26;2.60;99.90
36212;DHT22;22247;48.586;13.492;2022-12-07T17:44:15;3.10;99.90
36212;DHT22;22247;48.586;13.492;2022-12-07T17:46:45;2.90;99.90
36212;DHT22;22247;48.586;13.492;2022-12-07T17:49:13;3.10;99.90
36212;DHT22;22247;48.586;13.492;2022-12-07T17:51:42;2.70;99.90
36212;DHT22;22247;48.586;13.492;2022-12-07T17:54:26;2.20;99.90
36212;DHT22;22247;48.586;13.492;2022-12-07T17:56:54;2.50;99.90
36212;DHT22;22247;48.586;13.492;2022-12-07T18:16:26;2.50;99.90
36212;DHT22;22247;48.586;13.492;2022-12-07T18:21:23;2.50;99.90
36212;DHT22;22247;48.586;13.492;2022-12-07T18:23:51;2.60;99.90
36212;DHT22;22247;48.586;13.492;2022-12-07T18:26:19;2.60;99.90
36212;DHT22;22247;48.586;13.492;2022-12-07T18:36:06;2.60;99.90
36212;DHT22;22247;48.586;13.492;2022-12-07T18:41:00;2.70;99.90
36212;DHT22;22247;48.586;13.492;2022-12-07T18:48:21;2.60;99.90
36212;DHT22;22247;48.586;13.492;2022-12-07T18:51:01;2.70;99.90
36212;DHT22;22247;48.586;13.492;2022-12-07T18:56:14;2.60;99.90
36212;DHT22;22247;48.586;13.492;2022-12-07T19:11:24;2.50;99.90
36212;DHT22;22247;48.586;13.492;2022-12-07T19:28:46;2.30;99.90
36212;DHT22;22247;48.586;13.492;2022-12-07T19:36:06;2.30;99.90
36212;DHT22;22247;48.586;13.492;2022-12-07T19:38:33;2.30;99.90
36212;DHT22;22247;48.586;13.492;2022-12-07T19:41:09;2.30;99.90
36212;DHT22;22247;48.586;13.492;2022-12-07T19:56:27;2.10;99.90
36212;DHT22;22247;48.586;13.492;2022-12-07T20:01:20;2.30;99.90
36212;DHT22;22247;48.586;13.492;2022-12-07T20:08:44;2.30;99.90
36212;DHT22;22247;48.586;13.492;2022-12-07T20:16:23;2.10;99.90
36212;DHT22;22247;48.586;13.492;2022-12-07T20:18:49;2.10;99.90
36212;DHT22;22247;48.586;13.492;2022-12-07T20:26:12;2.10;99.90
36212;DHT22;22247;48.586;13.492;2022-12-07T20:31:11;2.00;99.90
36212;DHT22;22247;48.586;13.492;2022-12-07T20:41:05;2.00;99.90
36212;DHT22;22247;48.586;13.492;2022-12-07T20:45:58;2.00;99.90
36212;DHT22;22247;48.586;13.492;2022-12-07T20:53:18;1.90;99.90
36212;DHT22;22247;48.586;13.492;2022-12-07T21:03:03;2.00;99.90
36212;DHT22;22247;48.586;13.492;2022-12-07T21:05:32;2.00;99.90
36212;DHT22;22247;48.586;13.492;2022-12-07T21:17:50;1.90;99.90
36212;DHT22;22247;48.586;13.492;2022-12-07T21:32:31;1.70;99.90
36212;DHT22;22247;48.586;13.492;2022-12-07T21:35:00;1.80;99.90
36212;DHT22;22247;48.586;13.492;2022-12-07T22:04:26;1.70;99.90
36212;DHT22;22247;48.586;13.492;2022-12-07T22:09:19;1.60;99.90
36212;DHT22;22247;48.586;13.492;2022-12-07T22:24:18;1.60;99.90
36212;DHT22;22247;48.586;13.492;2022-12-07T22:26:48;1.60;99.90
36212;DHT22;22247;48.586;13.492;2022-12-07T22:29:17;2.10;99.90
36212;DHT22;22247;48.586;13.492;2022-12-07T22:34:15;1.50;99.90
36212;DHT22;22247;48.586;13.492;2022-12-07T22:54:10;1.70;99.90
36212;DHT22;22247;48.586;13.492;2022-12-07T22:59:11;1.40;99.90
36212;DHT22;22247;48.586;13.492;2022-12-07T23:06:31;1.40;99.90
36212;DHT22;22247;48.586;13.492;2022-12-07T23:08:59;1.40;99.90
36212;DHT22;22247;48.586;13.492;2022-12-07T23:14:26;1.60;99.90
